KEGE/EGE METAR and TAF weather

Enter ICAO airport designator
Station Type Date Time Source
KEGE METAR 2020/03/28 20:56 UTC NOAA

KEGE 282056Z 29010KT 10SM FEW038 BKN060 03/M11 A3004 RMK AO2 SLP205 60000 T00281106 56006


Station Type Date Time Source
KEGE Decoded METAR 2020/03/28 20:56 UTC NOAA

Eagle County Regional, CO, United States (KEGE) 39-39N 106-55W
Mar 28, 2020 - 04:56 PM EDT / 2020.03.28 2056 UTC
Wind: from the WNW (290 degrees) at 12 MPH (10 KT):0
Visibility: 10 mile(s):0
Sky conditions: mostly cloudy
Temperature: 37.0 F (2.8 C)
Dew Point: 12.9 F (-10.6 C)
Relative Humidity: 36%
Pressure (altimeter): 30.04 in. Hg (1017 hPa)
Pressure tendency: 0.02 inches (0.6 hPa) lower than three hours ago
ob: KEGE 282056Z 29010KT 10SM FEW038 BKN060 03/M11 A3004 RMK AO2 SLP205 60000 T00281106 56006
cycle: 21

Station Type Date Time Source
KEGE TAF 2020/03/28 21:18 UTC NOAA

TAF
AMD KEGE 282115Z 2821/2918 29010KT P6SM VCSH FEW040 BKN060
FM290300 22007KT P6SM FEW050 FEW120
FM290600 VRB04KT P6SM FEW045 FEW080

Example: see airport list